Time;durP1;ratioP1;P1;durP2;ratioP2;P2;SDS_P1;SDS_P2;PMS_P1;PMS_P2;Temp;Humidity;BMP_temperature;BMP_pressure;BME280_temperature;BME280_humidity;BME280_pressure;Samples;Min_cycle;Max_cycle;Signal;HPM_P1;HPM_P2
2024/03/21 00:00:18;;;;;;;16.95;11.10;;;15.60;60.00;17.30;101818.00;;;;4999293;28;20194;-79
2024/03/21 00:02:47;;;;;;;14.73;10.50;;;15.50;60.00;17.20;101820.00;;;;4996904;28;20201;-79
2024/03/21 00:05:14;;;;;;;15.10;10.50;;;15.50;60.00;17.20;101823.00;;;;4996793;28;20726;-79
2024/03/21 00:07:45;;;;;;;15.25;10.63;;;15.50;60.10;17.20;101813.00;;;;4993074;28;20205;-79
2024/03/21 00:10:12;;;;;;;19.48;11.82;;;15.50;60.20;17.20;101825.00;;;;4993979;28;20241;-79
2024/03/21 00:12:40;;;;;;;14.75;10.65;;;15.50;60.20;17.20;101832.00;;;;4992031;28;20201;-79
2024/03/21 00:15:07;;;;;;;15.00;10.50;;;15.40;60.20;17.10;101834.00;;;;4994564;28;20284;-80
2024/03/21 00:17:35;;;;;;;16.70;10.75;;;15.40;60.20;17.00;101837.00;;;;4995391;28;20752;-79
2024/03/21 00:20:09;;;;;;;16.02;10.80;;;15.40;60.30;17.00;101852.00;;;;4999865;28;20197;-78
2024/03/21 00:22:36;;;;;;;15.27;10.70;;;15.40;60.40;17.00;101857.00;;;;5001454;28;20221;-78
2024/03/21 00:25:03;;;;;;;15.60;10.95;;;15.40;60.40;17.00;101859.00;;;;5007268;28;20268;-79
2024/03/21 00:27:33;;;;;;;17.27;12.05;;;15.30;60.50;17.00;101855.00;;;;5005086;28;20680;-80
2024/03/21 00:29:59;;;;;;;15.32;11.48;;;15.30;60.60;17.00;101853.00;;;;5002040;28;20221;-79
2024/03/21 00:32:27;;;;;;;13.63;10.75;;;15.30;60.70;17.00;101863.00;;;;4993797;28;20198;-80
2024/03/21 00:34:54;;;;;;;15.73;11.10;;;15.30;60.80;17.00;101857.00;;;;4992840;28;20208;-75
2024/03/21 00:37:23;;;;;;;15.50;10.95;;;15.30;60.90;16.90;101860.00;;;;4991827;28;20194;-79
2024/03/21 00:39:49;;;;;;;14.05;10.75;;;15.20;60.90;16.90;101854.00;;;;4987788;28;20244;-79
2024/03/21 00:42:17;;;;;;;12.95;9.35;;;15.20;61.70;16.90;101865.00;;;;4994028;28;20403;-80
2024/03/21 00:44:44;;;;;;;15.20;9.93;;;15.20;61.10;16.90;101864.00;;;;4992554;28;20226;-79
2024/03/21 00:47:10;;;;;;;13.40;9.02;;;15.20;61.10;16.90;101863.00;;;;4992666;28;20193;-79
2024/03/21 00:49:37;;;;;;;13.68;9.95;;;15.20;61.20;16.90;101845.00;;;;4993072;28;20232;-79
2024/03/21 00:52:05;;;;;;;12.98;9.88;;;15.20;61.30;16.90;101845.00;;;;4992721;28;20202;-78
2024/03/21 00:54:34;;;;;;;12.27;9.32;;;15.20;61.30;16.90;101844.00;;;;4994475;28;20201;-80
2024/03/21 00:57:00;;;;;;;13.52;8.98;;;15.20;61.30;17.00;101846.00;;;;4994067;28;20225;-79
2024/03/21 00:59:27;;;;;;;12.77;9.30;;;15.20;61.30;16.90;101848.00;;;;4993521;28;20208;-79
2024/03/21 01:01:54;;;;;;;12.32;9.38;;;15.20;61.30;17.00;101845.00;;;;4993923;28;20288;-78
2024/03/21 01:04:21;;;;;;;12.15;9.20;;;15.20;61.30;17.00;101844.00;;;;4993965;28;20260;-79
2024/03/21 01:06:47;;;;;;;14.45;9.75;;;15.20;61.30;16.90;101840.00;;;;4993888;28;20575;-80
2024/03/21 01:09:15;;;;;;;14.07;9.10;;;15.20;61.90;16.90;101831.00;;;;4993260;28;20198;-80
2024/03/21 01:11:42;;;;;;;13.50;9.85;;;15.20;61.20;16.90;101844.00;;;;4990343;28;20203;-79
2024/03/21 01:14:09;;;;;;;16.95;11.07;;;15.20;61.30;16.90;101838.00;;;;4980863;28;20204;-79
2024/03/21 01:16:36;;;;;;;14.32;9.45;;;15.20;61.30;16.90;101846.00;;;;4993595;28;20713;-75
2024/03/21 01:19:03;;;;;;;13.80;9.73;;;15.20;61.30;16.90;101834.00;;;;5009131;28;20217;-80
2024/03/21 01:21:29;;;;;;;13.27;9.82;;;15.20;61.40;16.90;101837.00;;;;4999349;28;20655;-79
2024/03/21 01:23:56;;;;;;;12.63;9.27;;;15.20;61.40;16.90;101842.00;;;;4992318;28;20212;-79
2024/03/21 01:26:22;;;;;;;14.52;9.60;;;15.20;62.00;16.90;101837.00;;;;4992639;28;20197;-79
2024/03/21 01:28:52;;;;;;;13.13;10.20;;;15.20;61.40;16.80;101834.00;;;;4993121;28;20570;-79
2024/03/21 01:31:21;;;;;;;12.82;9.57;;;15.20;61.50;16.80;101823.00;;;;4992830;28;20360;-79
2024/03/21 01:33:50;;;;;;;12.90;9.88;;;15.10;61.40;16.80;101839.00;;;;4993017;28;20200;-76
2024/03/21 01:36:16;;;;;;;13.60;9.15;;;15.10;61.40;16.80;101840.00;;;;4993206;28;20210;-79
2024/03/21 01:38:45;;;;;;;14.18;9.32;;;15.10;61.50;16.80;101850.00;;;;4984165;28;20661;-79
2024/03/21 01:41:12;;;;;;;14.27;10.55;;;15.10;61.60;16.80;101857.00;;;;4983748;28;20198;-80
2024/03/21 01:43:40;;;;;;;16.70;9.57;;;15.10;61.60;16.80;101875.00;;;;4976153;28;20221;-81
2024/03/21 01:46:16;;;;;;;13.88;9.18;;;15.10;61.70;16.70;101872.00;;;;4973887;28;20726;-80
2024/03/21 01:48:47;;;;;;;13.20;9.63;;;15.10;61.70;16.70;101870.00;;;;4986881;28;20739;-80
2024/03/21 01:51:17;;;;;;;11.30;8.90;;;15.10;61.70;16.70;101865.00;;;;4992621;28;20244;-81
2024/03/21 01:53:45;;;;;;;13.88;9.57;;;15.10;61.80;16.60;101859.00;;;;4992561;28;20577;-79
2024/03/21 01:56:11;;;;;;;12.23;8.32;;;15.10;62.30;16.70;101869.00;;;;4993044;28;20673;-79
2024/03/21 01:58:38;;;;;;;12.40;8.75;;;15.00;61.90;16.60;101869.00;;;;4992897;28;20284;-79
2024/03/21 02:01:24;;;;;;;12.85;8.68;;;15.00;62.20;16.50;101870.00;;;;4992173;28;20202;-80
2024/03/21 02:03:52;;;;;;;12.38;8.18;;;15.00;62.40;16.60;101861.00;;;;4991875;28;20694;-79
2024/03/21 02:06:20;;;;;;;12.20;8.60;;;15.10;62.00;16.60;101856.00;;;;4991282;28;20566;-82
2024/03/21 02:08:47;;;;;;;13.60;8.40;;;15.00;62.10;16.60;101849.00;;;;4992445;28;20202;-80
2024/03/21 02:11:14;;;;;;;14.02;8.73;;;15.00;62.10;16.60;101841.00;;;;4991616;28;20213;-79
2024/03/21 02:13:42;;;;;;;11.75;8.23;;;15.00;62.00;16.60;101846.00;;;;4991428;28;20205;-80
2024/03/21 02:16:08;;;;;;;10.75;8.32;;;15.00;62.00;16.60;101858.00;;;;4992217;28;20200;-80
2024/03/21 02:18:37;;;;;;;11.32;8.35;;;15.00;61.90;16.60;101862.00;;;;4992383;28;20213;-80
2024/03/21 02:21:04;;;;;;;11.88;8.60;;;15.00;62.00;16.60;101860.00;;;;4992259;28;20189;-81
2024/03/21 02:23:32;;;;;;;11.95;9.07;;;15.00;62.00;16.60;101845.00;;;;4992521;28;20209;-79
2024/03/21 02:25:58;;;;;;;13.50;9.45;;;15.00;62.10;16.60;101846.00;;;;4992719;28;20204;-80
2024/03/21 02:28:26;;;;;;;12.45;9.43;;;15.00;62.00;16.60;101847.00;;;;4991450;28;20198;-79
2024/03/21 02:30:55;;;;;;;17.60;10.13;;;15.00;62.10;16.60;101839.00;;;;4991909;28;20229;-79
2024/03/21 02:33:21;;;;;;;14.20;9.95;;;15.00;62.10;16.60;101852.00;;;;4990044;28;20194;-80
2024/03/21 02:35:48;;;;;;;16.50;8.80;;;15.00;62.10;16.50;101853.00;;;;4992264;28;20569;-80
2024/03/21 02:38:14;;;;;;;15.00;9.73;;;15.00;62.10;16.50;101850.00;;;;4990276;28;20200;-79
2024/03/21 02:40:43;;;;;;;16.52;10.35;;;15.00;62.00;16.50;101855.00;;;;4992161;28;20229;-79
2024/03/21 02:43:10;;;;;;;16.45;10.73;;;15.00;62.00;16.50;101854.00;;;;4998772;28;20308;-80
2024/03/21 02:45:36;;;;;;;18.45;10.35;;;15.00;62.10;16.40;101845.00;;;;4990274;28;20284;-77
2024/03/21 02:48:03;;;;;;;16.65;11.73;;;14.90;62.00;16.40;101847.00;;;;4991707;28;20761;-79
2024/03/21 02:50:30;;;;;;;15.60;10.95;;;14.90;62.10;16.40;101854.00;;;;4991510;28;20222;-80
2024/03/21 02:52:57;;;;;;;14.68;11.48;;;14.90;62.20;16.30;101858.00;;;;4992082;28;20205;-80
2024/03/21 02:55:23;;;;;;;17.58;10.75;;;14.90;62.20;16.30;101871.00;;;;4990516;28;20589;-80
2024/03/21 02:57:51;;;;;;;15.70;11.30;;;14.80;62.10;16.30;101880.00;;;;4992307;28;20683;-78
2024/03/21 03:00:17;;;;;;;16.52;11.57;;;14.80;62.20;16.30;101873.00;;;;4982969;28;20201;-80
2024/03/21 03:02:45;;;;;;;18.05;12.10;;;14.80;62.20;16.20;101881.00;;;;4990829;28;20193;-79
2024/03/21 03:05:13;;;;;;;16.85;11.80;;;14.70;62.10;16.20;101877.00;;;;4991564;28;20190;-79
2024/03/21 03:07:40;;;;;;;18.23;11.65;;;14.70;62.20;16.20;101874.00;;;;4986515;28;20746;-80
2024/03/21 03:10:07;;;;;;;17.02;11.85;;;14.70;62.30;16.10;101884.00;;;;4991333;28;20744;-80
2024/03/21 03:12:34;;;;;;;17.50;12.18;;;14.60;62.30;16.10;101880.00;;;;4991883;28;20211;-80
2024/03/21 03:15:04;;;;;;;15.38;11.40;;;14.60;62.40;16.10;101873.00;;;;4994472;28;20560;-80
2024/03/21 03:17:31;;;;;;;17.52;12.73;;;14.60;62.50;16.10;101878.00;;;;4996217;28;20217;-79
2024/03/21 03:19:57;;;;;;;14.45;11.75;;;14.60;62.60;16.10;101889.00;;;;4995670;28;20564;-80
2024/03/21 03:22:24;;;;;;;17.95;12.05;;;14.60;62.70;16.10;101888.00;;;;4995850;28;20194;-80
2024/03/21 03:24:50;;;;;;;17.60;12.05;;;14.50;62.80;16.20;101897.00;;;;4994503;28;20194;-80
2024/03/21 03:27:18;;;;;;;17.20;11.90;;;14.50;62.90;16.10;101902.00;;;;4995278;28;20577;-80
2024/03/21 03:29:44;;;;;;;20.02;12.90;;;14.50;62.90;16.10;101914.00;;;;4995471;28;20567;-80
2024/03/21 03:32:13;;;;;;;19.98;13.55;;;14.50;63.10;16.10;101920.00;;;;4995628;28;20198;-80
2024/03/21 03:37:25;;;;;;;17.70;12.20;;;14.60;63.20;16.10;101926.00;;;;4986236;28;20213;-78
2024/03/21 03:39:51;;;;;;;19.13;12.35;;;14.60;63.20;16.20;101930.00;;;;4988292;28;20608;-81
2024/03/21 03:42:20;;;;;;;18.13;12.57;;;14.60;63.20;16.20;101932.00;;;;4994325;28;20196;-81
2024/03/21 03:44:47;;;;;;;20.42;12.57;;;14.60;63.30;16.10;101933.00;;;;4993955;28;20361;-82
2024/03/21 03:47:15;;;;;;;17.27;12.85;;;14.60;63.20;16.20;101950.00;;;;4994337;28;20197;-81
2024/03/21 03:49:42;;;;;;;19.55;13.40;;;14.60;63.40;16.20;101941.00;;;;4995518;28;20552;-81
2024/03/21 03:52:10;;;;;;;21.45;12.93;;;14.60;63.40;16.20;101958.00;;;;4995702;28;20190;-85
2024/03/21 03:54:36;;;;;;;18.50;13.65;;;14.60;63.50;16.20;101955.00;;;;4994668;28;20209;-81
2024/03/21 03:57:03;;;;;;;15.07;11.73;;;14.60;63.50;16.10;101946.00;;;;4995255;28;20194;-81
2024/03/21 03:59:29;;;;;;;17.60;12.82;;;14.60;63.50;16.10;101948.00;;;;4994772;28;20197;-80
2024/03/21 04:01:56;;;;;;;17.88;12.43;;;14.60;63.80;16.10;101947.00;;;;4994288;28;20667;-81
2024/03/21 04:04:25;;;;;;;15.25;11.15;;;14.60;63.60;16.10;101952.00;;;;4994501;28;20194;-83
2024/03/21 04:06:53;;;;;;;16.20;10.38;;;14.50;63.60;16.10;101953.00;;;;4993503;28;20671;-78
2024/03/21 04:09:19;;;;;;;15.18;10.57;;;14.60;63.50;16.10;101953.00;;;;4994730;28;20655;-82
2024/03/21 04:11:47;;;;;;;12.73;10.60;;;14.60;63.50;16.10;101946.00;;;;4993834;28;20228;-81
2024/03/21 04:14:13;;;;;;;16.35;11.05;;;14.60;63.50;16.10;101957.00;;;;4995704;28;20521;-81
2024/03/21 04:16:40;;;;;;;13.50;10.02;;;14.60;63.50;16.10;101956.00;;;;4994746;28;20755;-79
2024/03/21 04:19:06;;;;;;;11.70;8.88;;;14.50;63.20;16.00;101961.00;;;;4994885;28;20298;-80
2024/03/21 04:21:34;;;;;;;13.02;7.55;;;14.60;63.40;16.00;101968.00;;;;4994612;28;20201;-79
2024/03/21 04:24:00;;;;;;;10.25;7.40;;;14.50;63.30;16.00;101970.00;;;;4992674;28;20189;-82
2024/03/21 04:26:27;;;;;;;8.88;7.35;;;14.50;63.20;16.00;101986.00;;;;4999505;28;20198;-80
2024/03/21 04:28:55;;;;;;;8.05;6.03;;;14.50;63.20;15.90;101976.00;;;;4979097;28;20198;-83
2024/03/21 04:31:23;;;;;;;5.78;4.10;;;14.50;63.20;15.90;101990.00;;;;4988677;28;20221;-88
2024/03/21 04:33:49;;;;;;;4.15;3.65;;;14.40;62.80;15.90;101988.00;;;;4992132;28;20666;-80
2024/03/21 04:36:16;;;;;;;3.75;3.17;;;14.40;62.80;15.80;101995.00;;;;4993807;28;20276;-82
2024/03/21 04:38:44;;;;;;;4.65;3.08;;;14.40;62.80;15.80;101999.00;;;;4993667;28;20288;-81
2024/03/21 04:41:11;;;;;;;3.35;3.05;;;14.30;62.60;15.70;102000.00;;;;4994370;28;20198;-80
2024/03/21 04:43:39;;;;;;;3.78;3.22;;;14.30;62.70;15.70;102009.00;;;;4993791;28;20698;-81
2024/03/21 04:46:06;;;;;;;3.00;2.70;;;14.20;62.60;15.70;102002.00;;;;4988678;28;20735;-83
2024/03/21 04:48:33;;;;;;;5.50;3.05;;;14.20;62.50;15.60;102008.00;;;;4992986;28;20193;-79
2024/03/21 04:51:00;;;;;;;2.35;2.15;;;14.20;63.10;15.60;102017.00;;;;4991856;28;20596;-79
2024/03/21 04:53:27;;;;;;;3.75;2.47;;;14.10;62.20;15.50;102022.00;;;;4992711;28;20280;-78
2024/03/21 04:55:56;;;;;;;3.72;2.67;;;14.10;62.20;15.50;102021.00;;;;4993429;28;20256;-79
2024/03/21 04:58:22;;;;;;;2.67;2.45;;;14.00;62.30;15.40;102031.00;;;;4995648;28;20205;-79
2024/03/21 05:00:49;;;;;;;4.07;2.55;;;14.00;62.20;15.40;102028.00;;;;4995453;28;20206;-81
2024/03/21 05:03:15;;;;;;;5.63;2.72;;;13.90;62.30;15.40;102034.00;;;;4993887;28;20197;-80
2024/03/21 05:05:42;;;;;;;4.22;3.10;;;13.90;62.40;15.40;102036.00;;;;4993585;28;20189;-80
2024/03/21 05:08:08;;;;;;;3.17;2.65;;;13.90;62.40;15.40;102038.00;;;;4993084;28;20667;-80
2024/03/21 05:10:35;;;;;;;4.82;3.15;;;13.80;62.40;15.40;102045.00;;;;4992194;28;20233;-82
2024/03/21 05:13:02;;;;;;;5.47;3.72;;;13.80;63.10;15.40;102053.00;;;;4993812;28;20236;-81
2024/03/21 05:15:30;;;;;;;6.03;3.55;;;13.80;62.50;15.40;102062.00;;;;4996211;28;20189;-77
2024/03/21 05:17:56;;;;;;;4.53;3.40;;;13.80;62.40;15.30;102060.00;;;;4994613;28;20229;-79
2024/03/21 05:20:27;;;;;;;5.22;4.10;;;13.70;62.40;15.30;102061.00;;;;4992806;28;20213;-81
2024/03/21 05:22:53;;;;;;;5.57;4.35;;;13.70;62.30;15.30;102065.00;;;;4992078;28;20245;-78
2024/03/21 05:25:20;;;;;;;4.18;3.67;;;13.70;62.30;15.30;102075.00;;;;4977077;28;20276;-83
2024/03/21 05:27:46;;;;;;;4.03;3.47;;;13.70;62.40;15.30;102078.00;;;;4990469;28;20201;-80
2024/03/21 05:30:14;;;;;;;4.50;3.67;;;13.70;62.40;15.30;102086.00;;;;4993171;28;20240;-79
2024/03/21 05:32:40;;;;;;;4.40;4.00;;;13.70;62.40;15.30;102086.00;;;;4992866;28;20550;-80
2024/03/21 05:35:09;;;;;;;4.53;3.78;;;13.70;62.40;15.30;102093.00;;;;4992938;28;20240;-79
2024/03/21 05:37:35;;;;;;;3.80;3.42;;;13.70;62.40;15.30;102088.00;;;;4992842;28;20209;-75
2024/03/21 05:40:03;;;;;;;4.68;3.47;;;13.70;62.30;15.30;102101.00;;;;4992500;28;20292;-80
2024/03/21 05:42:29;;;;;;;3.85;3.40;;;13.70;62.10;15.20;102103.00;;;;4982346;28;20197;-82
2024/03/21 05:44:56;;;;;;;4.80;3.05;;;13.70;62.00;15.20;102097.00;;;;4992413;28;20225;-79
2024/03/21 05:47:24;;;;;;;4.70;3.72;;;13.70;61.80;15.20;102098.00;;;;4992040;28;20660;-78
2024/03/21 05:49:51;;;;;;;2.90;2.55;;;13.60;61.70;15.10;102108.00;;;;4990103;28;20201;-80
2024/03/21 05:52:18;;;;;;;4.43;2.63;;;13.60;61.70;15.20;102115.00;;;;4992402;28;20227;-81
2024/03/21 05:54:49;;;;;;;3.20;2.50;;;13.60;61.70;15.10;102113.00;;;;4992252;28;20209;-81
2024/03/21 05:57:16;;;;;;;3.10;2.50;;;13.60;61.80;15.10;102114.00;;;;4991848;28;20190;-85
2024/03/21 05:59:43;;;;;;;3.05;1.95;;;13.50;61.60;15.00;102116.00;;;;4989720;28;20208;-86
2024/03/21 06:02:09;;;;;;;2.25;1.27;;;13.50;61.50;15.10;102126.00;;;;4989652;28;20288;-81
2024/03/21 06:04:37;;;;;;;1.67;1.40;;;13.50;61.40;15.00;102121.00;;;;4977147;28;20205;-76
2024/03/21 06:07:04;;;;;;;3.45;0.90;;;13.40;61.40;15.00;102127.00;;;;4991938;28;20208;-85
2024/03/21 06:09:32;;;;;;;3.00;1.00;;;13.40;61.40;15.00;102127.00;;;;4990430;28;20194;-78
2024/03/21 06:11:58;;;;;;;3.83;0.90;;;13.40;61.40;15.00;102121.00;;;;4986707;28;20344;-79
2024/03/21 06:14:27;;;;;;;1.35;0.70;;;13.40;61.50;15.00;102131.00;;;;4987787;28;20194;-80
2024/03/21 06:16:53;;;;;;;2.05;1.02;;;13.40;61.50;15.00;102142.00;;;;4990505;28;20225;-78
2024/03/21 06:19:20;;;;;;;3.42;0.90;;;13.40;61.50;15.00;102149.00;;;;4986457;28;20222;-80
2024/03/21 06:21:48;;;;;;;1.67;0.90;;;13.40;61.60;15.00;102149.00;;;;4991594;28;20194;-80
2024/03/21 06:24:15;;;;;;;1.40;0.85;;;13.40;61.60;15.00;102147.00;;;;4991084;28;20201;-79
2024/03/21 06:26:41;;;;;;;2.55;1.05;;;13.40;61.70;15.10;102157.00;;;;4992367;28;20198;-80
2024/03/21 06:29:08;;;;;;;3.47;1.63;;;13.40;61.80;15.00;102151.00;;;;4991943;28;20224;-80
2024/03/21 06:31:34;;;;;;;3.33;1.25;;;13.40;61.70;15.10;102158.00;;;;4992047;28;20252;-80
2024/03/21 06:34:02;;;;;;;3.42;0.88;;;13.40;61.70;15.10;102164.00;;;;4991675;28;20193;-82
2024/03/21 06:36:28;;;;;;;1.75;1.30;;;13.40;61.70;15.10;102164.00;;;;4991362;28;20205;-80
2024/03/21 06:38:56;;;;;;;1.50;0.73;;;13.50;61.80;15.10;102159.00;;;;4990099;28;20201;-80
2024/03/21 06:41:23;;;;;;;2.80;0.68;;;13.50;61.60;15.10;102157.00;;;;4989704;28;20193;-80
2024/03/21 06:43:50;;;;;;;3.85;1.05;;;13.40;61.40;15.10;102170.00;;;;4985625;28;20225;-79
2024/03/21 06:46:17;;;;;;;3.85;1.00;;;13.40;61.40;15.10;102172.00;;;;4987082;28;20221;-79
2024/03/21 06:48:44;;;;;;;5.97;0.60;;;13.50;61.50;15.10;102182.00;;;;4991039;28;20313;-79
2024/03/21 06:51:10;;;;;;;5.88;0.95;;;13.50;61.60;15.10;102185.00;;;;4995759;28;20231;-81
2024/03/21 06:53:37;;;;;;;5.07;0.98;;;13.50;61.60;15.10;102190.00;;;;4995379;28;20201;-79
2024/03/21 06:56:04;;;;;;;4.20;1.25;;;13.50;61.50;15.10;102185.00;;;;5002205;28;20193;-79
2024/03/21 06:58:32;;;;;;;3.30;0.95;;;13.50;61.50;15.10;102193.00;;;;4998364;28;20198;-80
2024/03/21 07:00:58;;;;;;;3.95;1.20;;;13.50;61.40;15.20;102187.00;;;;4994147;28;20200;-78
2024/03/21 07:03:25;;;;;;;3.58;1.15;;;13.50;61.40;15.20;102192.00;;;;4993761;28;20197;-79
2024/03/21 07:05:52;;;;;;;3.22;0.88;;;13.50;61.40;15.20;102199.00;;;;4994968;28;20211;-81
2024/03/21 07:08:19;;;;;;;2.55;0.90;;;13.50;61.30;15.20;102205.00;;;;4994163;28;20213;-81
2024/03/21 07:10:46;;;;;;;4.15;0.80;;;13.50;61.30;15.20;102214.00;;;;4983278;28;20218;-79
2024/03/21 07:13:14;;;;;;;4.68;1.05;;;13.60;61.40;15.20;102210.00;;;;4995847;28;20194;-79
2024/03/21 07:15:41;;;;;;;0.90;0.73;;;13.60;61.30;15.30;102221.00;;;;4992713;28;20282;-79
2024/03/21 07:18:09;;;;;;;2.42;0.70;;;13.60;61.30;15.30;102226.00;;;;4995301;28;20271;-80
2024/03/21 07:20:35;;;;;;;2.22;0.55;;;13.60;61.40;15.40;102236.00;;;;4996138;28;20279;-80
2024/03/21 07:23:02;;;;;;;2.78;1.05;;;13.70;61.50;15.40;102232.00;;;;4995512;28;20248;-83
2024/03/21 07:25:28;;;;;;;4.05;0.70;;;13.70;61.50;15.50;102231.00;;;;4995041;28;20204;-82
2024/03/21 07:27:55;;;;;;;7.22;0.60;;;13.70;61.30;15.50;102231.00;;;;4990643;28;20680;-80
2024/03/21 07:30:22;;;;;;;1.05;0.45;;;13.80;61.20;15.50;102239.00;;;;4983152;28;20192;-81
2024/03/21 07:32:50;;;;;;;3.03;0.57;;;13.80;61.10;15.50;102240.00;;;;4995514;28;20288;-82
2024/03/21 07:35:17;;;;;;;2.33;0.73;;;13.80;60.90;15.50;102239.00;;;;4995146;28;20205;-81
2024/03/21 07:37:44;;;;;;;2.60;0.52;;;13.80;60.80;15.50;102233.00;;;;4994683;28;20208;-83
2024/03/21 07:40:12;;;;;;;3.83;0.57;;;13.90;60.80;15.50;102242.00;;;;4995020;28;20197;-84
2024/03/21 07:42:38;;;;;;;2.03;0.77;;;13.90;61.50;15.60;102245.00;;;;4993073;28;20854;-79
2024/03/21 07:45:08;;;;;;;1.90;0.70;;;13.90;60.80;15.60;102234.00;;;;4981002;28;20202;-79
2024/03/21 07:47:35;;;;;;;2.85;0.52;;;13.90;60.70;15.60;102243.00;;;;4993976;28;20198;-83
2024/03/21 07:50:03;;;;;;;3.75;0.88;;;13.90;60.60;15.60;102235.00;;;;4995923;28;20308;-80
2024/03/21 07:52:29;;;;;;;4.03;1.00;;;13.90;60.60;15.70;102242.00;;;;4995019;28;20217;-79
2024/03/21 07:54:56;;;;;;;2.78;1.33;;;13.90;60.50;15.70;102250.00;;;;4990209;28;20209;-79
2024/03/21 07:57:22;;;;;;;5.38;1.05;;;13.90;60.40;15.70;102258.00;;;;4991181;28;20507;-80
2024/03/21 07:59:49;;;;;;;2.83;1.02;;;14.00;60.50;15.70;102267.00;;;;4989722;28;20206;-81
2024/03/21 08:02:15;;;;;;;4.00;0.80;;;14.00;60.50;15.70;102266.00;;;;4993841;28;20229;-77
2024/03/21 08:04:44;;;;;;;3.33;0.65;;;14.00;60.40;15.70;102267.00;;;;4991103;28;20260;-80
2024/03/21 08:07:10;;;;;;;2.63;0.60;;;14.00;60.20;15.80;102281.00;;;;4982608;28;20605;-84
2024/03/21 08:09:37;;;;;;;2.85;0.60;;;14.00;60.10;15.80;102282.00;;;;5001871;28;20902;-82
2024/03/21 08:12:03;;;;;;;3.53;1.17;;;14.00;60.00;15.80;102276.00;;;;5004977;28;20220;-81
2024/03/21 08:14:30;;;;;;;2.67;0.70;;;14.10;60.00;15.80;102283.00;;;;5004313;28;20201;-82
2024/03/21 08:16:56;;;;;;;2.00;0.73;;;14.10;59.90;15.80;102286.00;;;;4996425;28;20840;-79
2024/03/21 08:19:23;;;;;;;3.45;1.17;;;14.10;60.00;15.90;102283.00;;;;4991280;28;20225;-82
2024/03/21 08:21:51;;;;;;;4.68;1.05;;;14.10;59.90;15.90;102291.00;;;;4980375;28;20689;-82
2024/03/21 08:24:18;;;;;;;1.50;0.63;;;14.10;59.80;15.90;102297.00;;;;4995535;28;20213;-80
2024/03/21 08:26:45;;;;;;;2.65;0.90;;;14.10;59.70;15.80;102300.00;;;;4995519;28;20200;-83
2024/03/21 08:29:12;;;;;;;1.67;0.57;;;14.20;59.60;15.90;102291.00;;;;4994938;28;20221;-85
2024/03/21 08:31:38;;;;;;;1.90;0.32;;;14.20;59.70;15.90;102286.00;;;;4990387;28;20233;-80
2024/03/21 08:34:05;;;;;;;1.67;0.70;;;14.20;59.80;16.00;102291.00;;;;4994033;28;20193;-83
2024/03/21 08:36:31;;;;;;;5.13;0.90;;;14.20;59.80;16.00;102297.00;;;;4994616;28;20577;-82
2024/03/21 08:39:00;;;;;;;3.17;0.80;;;14.20;59.60;16.00;102296.00;;;;4995423;28;20248;-76
2024/03/21 08:41:26;;;;;;;2.30;0.43;;;14.30;59.70;16.10;102305.00;;;;5014251;28;20303;-81
2024/03/21 08:43:53;;;;;;;1.98;0.80;;;14.30;59.70;16.10;102309.00;;;;5013820;28;20320;-81
2024/03/21 08:46:19;;;;;;;3.38;0.68;;;14.30;59.60;16.20;102305.00;;;;5013936;28;20200;-80
2024/03/21 08:48:46;;;;;;;3.08;0.70;;;14.40;60.40;16.20;102312.00;;;;4992283;28;20221;-80
2024/03/21 08:51:12;;;;;;;3.72;0.70;;;14.40;59.70;16.20;102318.00;;;;5002039;28;20221;-84
2024/03/21 08:53:39;;;;;;;1.60;0.50;;;14.40;59.60;16.30;102318.00;;;;5004627;28;20581;-82
2024/03/21 08:56:07;;;;;;;6.00;0.90;;;14.50;59.60;16.30;102321.00;;;;5001023;28;20197;-81
2024/03/21 08:58:34;;;;;;;3.30;0.40;;;14.50;59.50;16.30;102320.00;;;;4999682;28;20834;-79
2024/03/21 09:01:00;;;;;;;1.75;0.63;;;14.60;59.50;16.30;102317.00;;;;4999711;28;20797;-81
2024/03/21 09:03:30;;;;;;;2.83;0.60;;;14.60;59.20;16.40;102311.00;;;;4999970;28;20297;-81
2024/03/21 09:05:57;;;;;;;1.92;0.30;;;14.60;59.20;16.40;102315.00;;;;5004728;28;20220;-81
2024/03/21 09:08:24;;;;;;;2.55;0.70;;;14.60;59.30;16.40;102324.00;;;;4998278;28;20202;-78
2024/03/21 09:10:50;;;;;;;1.40;0.38;;;14.70;59.30;16.50;102332.00;;;;4998236;28;20292;-82
2024/03/21 09:13:19;;;;;;;1.75;0.70;;;14.70;59.30;16.50;102331.00;;;;4993389;28;20204;-81
2024/03/21 09:15:45;;;;;;;8.10;0.70;;;14.70;59.30;16.60;102333.00;;;;4991422;28;20198;-80
2024/03/21 09:18:12;;;;;;;1.88;0.55;;;14.80;59.30;16.70;102328.00;;;;4994280;28;20231;-80
2024/03/21 09:20:38;;;;;;;3.95;0.60;;;14.90;59.40;16.70;102326.00;;;;4993103;28;20612;-81
2024/03/21 09:23:05;;;;;;;5.22;1.02;;;14.90;59.30;16.80;102325.00;;;;4993404;28;20240;-80
2024/03/21 09:25:31;;;;;;;1.38;0.50;;;14.90;59.10;16.90;102327.00;;;;4992849;28;20212;-82
2024/03/21 09:27:58;;;;;;;3.55;1.02;;;15.00;59.20;17.00;102332.00;;;;4993502;28;20216;-80
2024/03/21 09:30:25;;;;;;;1.50;0.52;;;15.10;59.20;17.00;102337.00;;;;4993776;28;20205;-82
2024/03/21 09:32:52;;;;;;;5.07;0.40;;;15.10;59.00;17.10;102333.00;;;;4993066;28;20236;-81
2024/03/21 09:35:18;;;;;;;4.82;0.60;;;15.20;58.80;17.10;102342.00;;;;4993131;28;20209;-81
2024/03/21 09:37:45;;;;;;;3.70;0.60;;;15.20;58.70;17.10;102337.00;;;;4990515;28;20209;-81
2024/03/21 09:40:13;;;;;;;1.38;0.40;;;15.30;58.70;17.20;102346.00;;;;4989268;28;20189;-80
2024/03/21 09:42:40;;;;;;;1.30;0.63;;;15.30;58.70;17.30;102345.00;;;;4993212;28;20228;-81
2024/03/21 09:45:12;;;;;;;2.90;0.70;;;15.40;58.70;17.30;102349.00;;;;4992471;28;20727;-82
2024/03/21 09:47:43;;;;;;;3.40;1.20;;;15.50;58.70;17.40;102344.00;;;;4993540;28;20233;-79
2024/03/21 09:50:12;;;;;;;2.92;0.57;;;15.50;58.60;17.40;102352.00;;;;4992597;28;20205;-80
2024/03/21 09:52:39;;;;;;;3.70;0.73;;;15.60;58.50;17.50;102357.00;;;;4992547;28;20316;-81
2024/03/21 09:55:13;;;;;;;2.35;0.95;;;15.60;58.40;17.50;102360.00;;;;4992366;28;20203;-80
2024/03/21 09:57:41;;;;;;;1.77;0.90;;;15.70;58.30;17.60;102364.00;;;;4986437;28;20663;-81
2024/03/21 10:00:10;;;;;;;4.50;0.80;;;15.70;58.20;17.60;102374.00;;;;4991294;28;20198;-85
2024/03/21 10:02:41;;;;;;;4.57;0.85;;;15.80;58.10;17.60;102389.00;;;;4991081;28;20671;-81
2024/03/21 10:05:10;;;;;;;3.10;0.70;;;15.80;57.90;17.70;102394.00;;;;4992016;28;20285;-81
2024/03/21 10:07:37;;;;;;;2.10;0.77;;;15.90;57.80;17.70;102386.00;;;;4989879;28;20738;-82
2024/03/21 10:10:05;;;;;;;2.75;0.82;;;15.90;57.80;17.70;102398.00;;;;4983917;28;21783;-83
2024/03/21 10:12:32;;;;;;;1.63;0.70;;;15.90;57.80;17.70;102398.00;;;;4980754;28;20259;-82
2024/03/21 10:14:58;;;;;;;3.47;0.70;;;16.00;57.80;17.80;102397.00;;;;4992975;28;20614;-83
2024/03/21 10:17:27;;;;;;;5.22;0.75;;;16.00;57.80;17.80;102406.00;;;;4992562;28;20212;-81
2024/03/21 10:19:54;;;;;;;3.13;0.85;;;16.00;57.70;17.80;102401.00;;;;4992870;28;20199;-84
2024/03/21 10:22:23;;;;;;;5.15;0.90;;;16.10;57.70;17.90;102403.00;;;;4993058;28;20678;-83
2024/03/21 10:24:53;;;;;;;3.53;1.45;;;16.10;57.60;17.80;102402.00;;;;4992243;28;20667;-86
2024/03/21 10:27:22;;;;;;;3.75;0.73;;;16.20;57.50;17.90;102398.00;;;;4992675;28;20659;-80
2024/03/21 10:29:49;;;;;;;3.13;0.85;;;16.20;57.40;17.90;102410.00;;;;4991810;28;20190;-76
2024/03/21 10:32:19;;;;;;;3.15;0.68;;;16.20;57.30;17.90;102389.00;;;;4977745;28;20226;-81
2024/03/21 10:34:48;;;;;;;4.10;0.95;;;16.20;57.00;17.90;102405.00;;;;4972754;28;20229;-84
2024/03/21 10:37:18;;;;;;;2.88;0.77;;;16.30;57.20;18.00;102405.00;;;;4973658;28;20210;-81
2024/03/21 10:39:44;;;;;;;5.32;1.10;;;16.30;57.10;18.00;102392.00;;;;4983510;28;20202;-86
2024/03/21 10:42:26;;;;;;;3.38;0.90;;;16.30;57.00;17.90;102407.00;;;;4992477;28;20292;-84
2024/03/21 10:44:56;;;;;;;3.08;1.10;;;16.40;57.00;18.10;102402.00;;;;4991775;28;20231;-81